createdAt,value
2018-10-19T00:01:38.959Z,3.33
2018-10-19T00:04:12.843Z,2.90
2018-10-19T00:06:46.718Z,2.00
2018-10-19T00:09:20.576Z,2.97
2018-10-19T00:11:54.376Z,2.03
2018-10-19T00:14:28.333Z,3.23
2018-10-19T00:17:02.215Z,1.73
2018-10-19T00:19:36.012Z,2.10
2018-10-19T00:22:09.870Z,3.10
2018-10-19T00:24:43.746Z,2.50
2018-10-19T00:27:17.605Z,3.03
2018-10-19T00:29:51.473Z,3.37
2018-10-19T00:32:25.304Z,2.83
2018-10-19T00:34:59.179Z,1.60
2018-10-19T00:37:33.026Z,1.40
2018-10-19T00:40:07.111Z,1.70
2018-10-19T00:42:40.971Z,4.63
2018-10-19T00:45:15.065Z,1.50
2018-10-19T00:47:48.860Z,1.97
2018-10-19T00:50:22.704Z,2.17
2018-10-19T00:52:56.561Z,2.13
2018-10-19T00:55:30.415Z,1.20
2018-10-19T00:58:04.272Z,2.03
2018-10-19T01:00:41.221Z,1.30
2018-10-19T01:03:15.162Z,2.00
2018-10-19T01:05:49.013Z,1.97
2018-10-19T01:08:22.850Z,2.13
2018-10-19T01:10:56.754Z,1.57
2018-10-19T01:13:30.576Z,1.20
2018-10-19T01:16:04.450Z,1.03
2018-10-19T01:18:38.398Z,2.77
2018-10-19T01:21:12.327Z,3.70
2018-10-19T01:23:46.129Z,3.37
2018-10-19T01:26:20.024Z,2.20
2018-10-19T01:28:54.277Z,1.30
2018-10-19T01:31:28.607Z,2.40
2018-10-19T01:34:02.587Z,2.67
2018-10-19T01:36:42.415Z,2.00
2018-10-19T01:39:16.424Z,2.60
2018-10-19T01:41:50.513Z,1.47
2018-10-19T01:44:24.453Z,1.67
2018-10-19T01:46:58.419Z,2.97
2018-10-19T01:49:32.388Z,2.50
2018-10-19T01:52:06.710Z,1.33
2018-10-19T01:54:40.676Z,1.53
2018-10-19T01:57:14.708Z,2.17
2018-10-19T01:59:48.690Z,1.50
2018-10-19T02:02:22.667Z,1.40
2018-10-19T02:04:56.776Z,1.50
2018-10-19T02:07:30.894Z,1.47
2018-10-19T02:10:05.485Z,2.20
2018-10-19T02:12:39.506Z,3.80
2018-10-19T02:15:13.481Z,1.63
2018-10-19T02:17:47.459Z,1.13
2018-10-19T02:20:21.411Z,2.00
2018-10-19T02:22:55.391Z,1.70
2018-10-19T02:25:29.372Z,1.37
2018-10-19T02:28:03.409Z,3.23
2018-10-19T02:30:37.387Z,1.40
2018-10-19T02:33:11.764Z,2.30
2018-10-19T02:35:45.700Z,3.13
2018-10-19T02:38:19.653Z,1.17
2018-10-19T02:40:53.638Z,2.00
2018-10-19T02:43:27.777Z,2.17
2018-10-19T02:46:01.708Z,2.07
2018-10-19T02:48:35.699Z,1.70
2018-10-19T02:51:09.672Z,2.97
2018-10-19T02:53:43.683Z,2.67
2018-10-19T02:56:17.604Z,3.07
2018-10-19T02:58:51.599Z,1.70
2018-10-19T03:01:25.546Z,1.60
2018-10-19T03:03:59.528Z,1.90
2018-10-19T03:06:33.479Z,2.63
2018-10-19T03:09:10.274Z,2.60
2018-10-19T03:11:44.275Z,2.67
2018-10-19T03:14:18.417Z,2.37
2018-10-19T03:16:52.364Z,2.53
2018-10-19T03:19:26.416Z,1.80
2018-10-19T03:22:00.373Z,2.03
2018-10-19T03:24:34.353Z,3.30
2018-10-19T03:27:09.480Z,3.70
2018-10-19T03:29:43.489Z,2.20
2018-10-19T03:32:17.513Z,2.50
2018-10-19T03:34:51.520Z,2.63
2018-10-19T03:37:25.468Z,2.97
2018-10-19T03:39:59.454Z,2.47
2018-10-19T03:42:33.411Z,3.77
2018-10-19T03:45:07.829Z,2.03
2018-10-19T03:47:41.778Z,2.27
2018-10-19T03:50:15.786Z,2.53
2018-10-19T03:52:49.776Z,1.57
2018-10-19T03:55:23.799Z,1.80
2018-10-19T03:57:57.726Z,2.50
2018-10-19T04:00:31.792Z,1.90
2018-10-19T04:03:06.018Z,2.43
2018-10-19T04:05:39.975Z,1.70
2018-10-19T04:08:13.941Z,1.53
2018-10-19T04:10:47.884Z,1.30
2018-10-19T04:13:21.820Z,1.67
2018-10-19T04:15:55.882Z,2.90
2018-10-19T04:18:29.998Z,1.87
2018-10-19T04:21:04.188Z,2.37
2018-10-19T04:23:38.078Z,3.20
2018-10-19T04:26:12.071Z,1.97
2018-10-19T04:28:46.011Z,3.30
2018-10-19T04:31:20.360Z,1.67
2018-10-19T04:33:54.323Z,1.30
2018-10-19T04:36:28.340Z,1.07
2018-10-19T04:39:02.317Z,1.47
2018-10-19T04:41:36.490Z,2.67
2018-10-19T04:44:10.766Z,2.07
2018-10-19T04:46:44.765Z,1.00
2018-10-19T04:49:18.730Z,1.83
2018-10-19T04:51:52.730Z,2.13
2018-10-19T04:54:26.649Z,1.27
2018-10-19T04:57:00.643Z,2.00
2018-10-19T04:59:34.586Z,1.67
2018-10-19T05:02:08.683Z,1.40
2018-10-19T05:04:42.826Z,1.20
2018-10-19T05:07:16.798Z,1.33
2018-10-19T05:09:50.749Z,1.30
2018-10-19T05:12:24.774Z,2.23
2018-10-19T05:14:58.718Z,1.90
2018-10-19T05:17:32.651Z,1.17
2018-10-19T05:20:08.181Z,1.70
2018-10-19T05:22:42.190Z,1.37
2018-10-19T05:25:16.239Z,3.50
2018-10-19T05:27:50.641Z,1.43
2018-10-19T05:30:24.666Z,1.60
2018-10-19T05:32:59.135Z,1.60
2018-10-19T05:35:32.993Z,1.20
2018-10-19T05:38:07.200Z,1.30
2018-10-19T05:40:41.111Z,1.50
2018-10-19T05:43:15.200Z,1.27
2018-10-19T05:45:51.960Z,2.57
2018-10-19T05:48:25.939Z,1.50
2018-10-19T05:50:59.996Z,1.73
2018-10-19T05:53:34.028Z,2.70
2018-10-19T05:56:08.933Z,1.77
2018-10-19T05:58:42.964Z,1.90
2018-10-19T06:01:16.894Z,2.07
2018-10-19T06:03:50.891Z,1.93
2018-10-19T06:06:24.868Z,2.03
2018-10-19T06:08:59.046Z,1.80
2018-10-19T06:11:33.043Z,1.60
2018-10-19T06:14:07.657Z,1.83
2018-10-19T06:16:41.631Z,2.00
2018-10-19T06:19:15.623Z,1.60
2018-10-19T06:21:49.542Z,1.43
2018-10-19T06:24:23.603Z,1.57
2018-10-19T06:26:57.550Z,1.87
2018-10-19T06:29:31.590Z,1.57
2018-10-19T06:32:05.925Z,1.70
2018-10-19T06:34:39.934Z,1.90
2018-10-19T06:37:13.895Z,1.80
2018-10-19T06:39:48.858Z,1.50
2018-10-19T06:42:22.812Z,1.70
2018-10-19T06:44:56.891Z,2.00
2018-10-19T06:47:30.841Z,1.77
2018-10-19T06:50:06.090Z,2.07
2018-10-19T06:52:40.609Z,1.70
2018-10-19T06:55:18.677Z,2.13
2018-10-19T06:57:52.651Z,1.77
2018-10-19T07:00:26.690Z,1.90
2018-10-19T07:03:00.621Z,1.73
2018-10-19T07:05:34.692Z,1.67
2018-10-19T07:08:09.048Z,2.83
2018-10-19T07:10:43.514Z,1.30
2018-10-19T07:13:17.512Z,1.60
2018-10-19T07:15:51.557Z,1.53
2018-10-19T07:18:25.544Z,2.70
2018-10-19T07:20:59.606Z,2.70
2018-10-19T07:23:33.567Z,1.67
2018-10-19T07:26:07.767Z,2.40
2018-10-19T07:28:41.670Z,2.00
2018-10-19T07:31:15.687Z,2.20
2018-10-19T07:33:49.784Z,1.90
2018-10-19T07:36:24.234Z,1.63
2018-10-19T07:38:58.208Z,2.23
2018-10-19T07:41:32.165Z,2.13
2018-10-19T07:44:06.471Z,2.43
2018-10-19T07:46:40.583Z,2.97
2018-10-19T07:49:14.648Z,3.20
2018-10-19T07:51:48.805Z,2.87
2018-10-19T07:54:22.812Z,3.27
2018-10-19T07:56:56.968Z,5.23
2018-10-19T07:59:30.989Z,3.37
2018-10-19T08:02:05.592Z,3.30
2018-10-19T08:04:39.496Z,3.40
2018-10-19T08:07:13.601Z,3.70
2018-10-19T08:09:47.650Z,3.33
2018-10-19T08:12:21.735Z,3.90
2018-10-19T08:14:55.885Z,3.50
2018-10-19T08:17:29.986Z,3.93
2018-10-19T08:20:04.116Z,3.57
2018-10-19T08:22:38.146Z,3.50
2018-10-19T08:25:12.171Z,4.53
2018-10-19T08:27:46.320Z,6.80
2018-10-19T08:30:20.353Z,5.43
2018-10-19T08:32:54.314Z,6.97
2018-10-19T08:35:28.270Z,6.93
2018-10-19T08:38:02.666Z,6.33
2018-10-19T08:40:36.638Z,6.83
2018-10-19T08:43:10.698Z,9.60
2018-10-19T08:45:44.680Z,9.10
2018-10-19T08:48:18.831Z,9.23
2018-10-19T08:50:52.749Z,8.23
2018-10-19T08:53:26.813Z,9.17
2018-10-19T08:56:00.794Z,8.33
2018-10-19T08:58:34.859Z,9.33
2018-10-19T09:01:08.846Z,7.97
2018-10-19T09:03:42.954Z,10.77
2018-10-19T09:06:17.040Z,9.90
2018-10-19T09:08:51.022Z,8.03
2018-10-19T09:11:25.076Z,8.37
2018-10-19T09:13:59.016Z,7.90
2018-10-19T09:16:32.970Z,9.70
2018-10-19T09:19:07.039Z,9.20
2018-10-19T09:21:41.110Z,10.13
2018-10-19T09:24:15.113Z,7.53
2018-10-19T09:26:49.112Z,8.47
2018-10-19T09:29:23.262Z,8.33
2018-10-19T09:31:57.304Z,8.07
2018-10-19T09:34:31.318Z,10.23
2018-10-19T09:37:06.049Z,7.23
2018-10-19T09:39:40.070Z,7.40
2018-10-19T09:42:14.161Z,7.10
2018-10-19T09:44:48.232Z,7.90
2018-10-19T09:47:22.346Z,9.15
2018-10-19T09:49:56.388Z,10.28
2018-10-19T09:52:30.345Z,5.93
2018-10-19T09:55:04.512Z,7.83
2018-10-19T09:57:38.600Z,4.60
2018-10-19T10:00:18.319Z,5.40
2018-10-19T10:02:52.345Z,9.40
2018-10-19T10:05:26.479Z,6.00
2018-10-19T10:08:01.628Z,5.22
2018-10-19T10:10:35.685Z,4.22
2018-10-19T10:13:12.962Z,6.00
2018-10-19T10:15:48.060Z,3.90
2018-10-19T10:18:21.997Z,4.78
2018-10-19T10:20:56.062Z,4.87
2018-10-19T10:23:30.166Z,9.05
2018-10-19T10:26:04.233Z,6.30
2018-10-19T10:28:38.173Z,4.87
2018-10-19T10:31:12.422Z,5.03
2018-10-19T10:33:46.365Z,7.75
2018-10-19T10:36:20.451Z,4.22
2018-10-19T10:38:54.569Z,4.72
2018-10-19T10:41:28.606Z,5.05
2018-10-19T10:44:02.559Z,6.78
2018-10-19T10:46:36.577Z,5.10
2018-10-19T10:49:10.578Z,6.05
2018-10-19T10:51:44.677Z,3.98
2018-10-19T10:54:18.596Z,5.92
2018-10-19T10:56:52.562Z,5.33
2018-10-19T10:59:26.502Z,5.83
2018-10-19T11:02:00.477Z,5.12
2018-10-19T11:04:34.418Z,7.03
2018-10-19T11:07:08.600Z,9.48
2018-10-19T11:09:42.517Z,5.95
2018-10-19T11:12:16.526Z,3.98
2018-10-19T11:14:50.496Z,3.75
2018-10-19T11:17:24.539Z,4.33
2018-10-19T11:19:58.469Z,4.75
2018-10-19T11:22:32.444Z,8.78
2018-10-19T11:25:06.957Z,5.65
2018-10-19T11:27:41.089Z,4.00
2018-10-19T11:30:15.028Z,4.37
2018-10-19T11:32:48.989Z,4.85
2018-10-19T11:35:22.934Z,4.97
2018-10-19T11:37:56.980Z,3.65
2018-10-19T11:40:37.945Z,3.72
2018-10-19T11:43:12.159Z,4.35
2018-10-19T11:45:46.048Z,4.90
2018-10-19T11:48:20.058Z,4.55
2018-10-19T11:50:54.059Z,4.87
2018-10-19T11:53:28.113Z,3.62
2018-10-19T11:56:02.075Z,4.97
2018-10-19T11:58:41.446Z,6.70
2018-10-19T12:01:15.435Z,4.78
2018-10-19T12:03:49.429Z,4.87
2018-10-19T12:06:23.375Z,7.17
2018-10-19T12:08:57.436Z,6.22
2018-10-19T12:11:31.388Z,8.30
2018-10-19T12:14:05.571Z,4.70
2018-10-19T12:16:39.688Z,7.37
2018-10-19T12:19:13.796Z,4.17
2018-10-19T12:21:47.665Z,6.75
2018-10-19T12:24:21.654Z,4.62
2018-10-19T12:26:55.620Z,4.17
2018-10-19T12:29:29.628Z,5.72
2018-10-19T12:32:03.576Z,6.05
2018-10-19T12:34:37.625Z,4.70
2018-10-19T12:37:12.268Z,6.03
2018-10-19T12:39:46.249Z,6.92
2018-10-19T12:42:20.189Z,8.13
2018-10-19T12:44:54.185Z,5.78
2018-10-19T12:47:35.873Z,3.50
2018-10-19T12:50:10.083Z,5.40
2018-10-19T12:52:44.033Z,6.30
2018-10-19T12:55:18.062Z,4.03
2018-10-19T12:57:52.000Z,3.72
2018-10-19T13:00:25.984Z,6.58
2018-10-19T13:02:59.917Z,4.65
2018-10-19T13:05:34.043Z,4.40
2018-10-19T13:08:07.976Z,5.35
2018-10-19T13:10:41.958Z,6.30
2018-10-19T13:13:16.281Z,6.50
2018-10-19T13:15:50.277Z,4.60
2018-10-19T13:18:24.186Z,4.72
2018-10-19T13:20:58.450Z,5.03
2018-10-19T13:23:33.016Z,4.92
2018-10-19T13:26:07.097Z,3.98
2018-10-19T13:28:41.035Z,5.50
2018-10-19T13:31:15.093Z,4.42
2018-10-19T13:33:49.095Z,7.67
2018-10-19T13:36:23.183Z,3.42
2018-10-19T13:38:57.145Z,4.83
2018-10-19T13:41:31.176Z,4.40
2018-10-19T13:44:05.180Z,3.95
2018-10-19T13:46:39.155Z,4.00
2018-10-19T13:49:13.110Z,5.45
2018-10-19T13:51:47.700Z,4.37
2018-10-19T13:54:21.695Z,3.30
2018-10-19T13:56:55.792Z,4.75
2018-10-19T13:59:29.711Z,4.03
2018-10-19T14:02:04.321Z,4.83
2018-10-19T14:04:38.370Z,4.50
2018-10-19T14:07:12.489Z,4.58
2018-10-19T14:09:46.449Z,3.00
2018-10-19T14:12:20.499Z,6.05
2018-10-19T14:14:54.605Z,2.65
2018-10-19T14:17:28.635Z,5.60
2018-10-19T14:20:02.699Z,3.47
2018-10-19T14:22:37.344Z,5.12
2018-10-19T14:25:12.479Z,5.30
2018-10-19T14:27:46.625Z,4.95
2018-10-19T14:30:20.632Z,3.92
2018-10-19T14:32:54.673Z,7.65
2018-10-19T14:35:28.647Z,17.02
2018-10-19T14:38:02.641Z,19.05
2018-10-19T14:40:36.617Z,13.53
2018-10-19T14:43:10.649Z,5.85
2018-10-19T14:45:44.642Z,9.23
2018-10-19T14:48:18.690Z,5.92
2018-10-19T14:50:52.635Z,4.87
2018-10-19T14:53:26.632Z,6.33
2018-10-19T14:56:00.575Z,6.47
2018-10-19T14:58:34.705Z,3.98
2018-10-19T15:01:08.718Z,7.53
2018-10-19T15:03:42.761Z,6.50
2018-10-19T15:06:17.026Z,5.40
2018-10-19T15:08:51.219Z,3.67
2018-10-19T15:11:25.466Z,3.98
2018-10-19T15:13:59.210Z,3.27
2018-10-19T15:16:33.227Z,5.40
2018-10-19T15:19:07.211Z,4.45
2018-10-19T15:21:41.309Z,4.08
2018-10-19T15:24:15.464Z,3.02
2018-10-19T15:26:49.391Z,2.62
2018-10-19T15:29:23.571Z,4.55
2018-10-19T15:31:57.481Z,3.27
2018-10-19T15:34:31.467Z,3.10
2018-10-19T15:37:05.403Z,4.62
2018-10-19T15:39:39.592Z,3.55
2018-10-19T15:42:13.559Z,3.35
2018-10-19T15:44:47.722Z,5.35
2018-10-19T15:47:25.478Z,4.72
2018-10-19T15:49:59.444Z,4.75
2018-10-19T15:52:33.390Z,3.47
2018-10-19T15:55:07.830Z,5.35
2018-10-19T15:57:41.956Z,5.17
2018-10-19T16:00:16.173Z,6.17
2018-10-19T16:02:50.238Z,6.20
2018-10-19T16:05:24.292Z,5.15
2018-10-19T16:07:58.261Z,6.12
2018-10-19T16:10:38.762Z,13.05
2018-10-19T16:13:12.800Z,9.40
2018-10-19T16:15:46.884Z,8.68
2018-10-19T16:18:20.866Z,9.27
2018-10-19T16:20:54.881Z,6.83
2018-10-19T16:23:28.821Z,6.00
2018-10-19T16:26:02.931Z,5.97
2018-10-19T16:28:37.023Z,5.60
2018-10-19T16:31:11.077Z,5.97
2018-10-19T16:33:45.079Z,9.38
2018-10-19T16:36:19.180Z,8.27
2018-10-19T16:38:53.258Z,8.33
2018-10-19T16:41:27.271Z,11.67
2018-10-19T16:44:01.204Z,11.80
2018-10-19T16:46:35.204Z,10.57
2018-10-19T16:49:09.219Z,9.50
2018-10-19T16:51:43.177Z,12.90
2018-10-19T16:54:17.283Z,14.20
2018-10-19T16:56:51.249Z,12.90
2018-10-19T16:59:25.243Z,10.43
2018-10-19T17:02:00.566Z,8.67
2018-10-19T17:04:34.572Z,7.70
2018-10-19T17:07:08.745Z,9.77
2018-10-19T17:09:42.697Z,9.30
2018-10-19T17:12:18.108Z,9.20
2018-10-19T17:14:52.068Z,7.50
2018-10-19T17:17:26.070Z,6.90
2018-10-19T17:20:00.032Z,7.63
2018-10-19T17:22:34.030Z,11.20
2018-10-19T17:25:10.954Z,11.63
2018-10-19T17:27:44.997Z,11.93
2018-10-19T17:30:19.109Z,7.60
2018-10-19T17:32:53.240Z,6.83
2018-10-19T17:35:27.129Z,8.47
2018-10-19T17:38:01.201Z,8.37
2018-10-19T17:40:35.159Z,7.63
2018-10-19T17:43:09.170Z,7.23
2018-10-19T17:45:43.159Z,6.87
2018-10-19T17:48:17.362Z,6.07
2018-10-19T17:50:51.292Z,8.03
2018-10-19T17:53:25.383Z,7.27
2018-10-19T17:55:59.356Z,6.43
2018-10-19T17:58:33.402Z,8.77
2018-10-19T18:01:07.424Z,5.13
2018-10-19T18:03:41.460Z,5.03
2018-10-19T18:06:15.563Z,6.37
2018-10-19T18:08:49.575Z,5.90
2018-10-19T18:11:23.690Z,4.33
2018-10-19T18:13:57.690Z,7.13
2018-10-19T18:16:31.636Z,5.77
2018-10-19T18:19:06.301Z,5.00
2018-10-19T18:21:40.335Z,10.27
2018-10-19T18:24:14.283Z,4.27
2018-10-19T18:26:48.303Z,3.93
2018-10-19T18:29:23.411Z,5.10
2018-10-19T18:31:57.456Z,6.07
2018-10-19T18:34:31.806Z,5.67
2018-10-19T18:37:09.128Z,7.63
2018-10-19T18:39:43.242Z,4.73
2018-10-19T18:42:17.204Z,5.73
2018-10-19T18:44:51.174Z,4.50
2018-10-19T18:47:25.123Z,4.93
2018-10-19T18:49:59.195Z,6.67
2018-10-19T18:52:33.154Z,6.77
2018-10-19T18:55:07.471Z,9.17
2018-10-19T18:57:41.464Z,5.60
2018-10-19T19:00:15.462Z,7.53
2018-10-19T19:02:49.381Z,4.43
2018-10-19T19:05:23.373Z,5.00
2018-10-19T19:07:57.343Z,5.83
2018-10-19T19:10:31.327Z,5.53
2018-10-19T19:13:10.441Z,12.23
2018-10-19T19:15:44.498Z,4.83
2018-10-19T19:18:18.419Z,6.10
2018-10-19T19:20:52.405Z,3.83
2018-10-19T19:23:26.381Z,4.50
2018-10-19T19:26:10.318Z,5.40
2018-10-19T19:28:44.553Z,5.27
2018-10-19T19:31:18.643Z,6.80
2018-10-19T19:33:57.848Z,3.77
2018-10-19T19:36:31.857Z,7.27
2018-10-19T19:39:08.325Z,5.37
2018-10-19T19:41:47.309Z,7.43
2018-10-19T19:44:21.263Z,3.97
2018-10-19T19:46:55.322Z,3.27
2018-10-19T19:49:35.390Z,9.10
2018-10-19T19:52:09.398Z,4.10
2018-10-19T19:54:43.347Z,5.77
2018-10-19T19:57:17.449Z,5.53
2018-10-19T19:59:51.627Z,7.87
2018-10-19T20:02:25.623Z,5.63
2018-10-19T20:04:59.619Z,6.87
2018-10-19T20:07:33.699Z,5.53
2018-10-19T20:10:08.137Z,5.20
2018-10-19T20:12:42.123Z,7.03
2018-10-19T20:15:16.063Z,5.83
2018-10-19T20:17:50.048Z,7.20
2018-10-19T20:20:24.298Z,5.70
2018-10-19T20:22:59.475Z,6.87
2018-10-19T20:25:33.560Z,7.23
2018-10-19T20:28:08.270Z,7.73
2018-10-19T20:30:42.668Z,7.33
2018-10-19T20:33:22.792Z,6.00
2018-10-19T20:35:56.746Z,5.30
2018-10-19T20:38:31.241Z,3.67
2018-10-19T20:41:05.673Z,4.97
2018-10-19T20:43:39.972Z,10.27
2018-10-19T20:46:14.340Z,4.60
2018-10-19T20:48:48.344Z,4.50
2018-10-19T20:51:22.310Z,3.87
2018-10-19T20:53:56.417Z,8.10
2018-10-19T20:56:30.654Z,4.33
2018-10-19T20:59:04.809Z,6.83
2018-10-19T21:01:38.759Z,5.10
2018-10-19T21:04:12.837Z,7.63
2018-10-19T21:06:46.823Z,6.47
2018-10-19T21:09:20.783Z,5.80
2018-10-19T21:11:54.719Z,7.57
2018-10-19T21:14:28.807Z,5.70
2018-10-19T21:17:02.751Z,7.13
2018-10-19T21:19:36.711Z,8.40
2018-10-19T21:22:10.521Z,8.27
2018-10-19T21:24:44.432Z,4.50
2018-10-19T21:27:18.422Z,6.57
2018-10-19T21:29:52.618Z,5.87
2018-10-19T21:32:26.514Z,4.93
2018-10-19T21:35:00.419Z,9.90
2018-10-19T21:37:34.476Z,7.93
2018-10-19T21:40:08.469Z,9.40
2018-10-19T21:42:42.320Z,4.40
2018-10-19T21:45:16.264Z,4.37
2018-10-19T21:47:50.259Z,7.80
2018-10-19T21:50:24.534Z,6.67
2018-10-19T21:52:58.521Z,8.77
2018-10-19T21:55:32.408Z,6.93
2018-10-19T21:58:06.480Z,5.53
2018-10-19T22:00:40.629Z,6.30
2018-10-19T22:03:14.517Z,6.80
2018-10-19T22:05:48.622Z,4.63
2018-10-19T22:08:22.601Z,5.93
2018-10-19T22:10:56.552Z,4.73
2018-10-19T22:13:30.812Z,5.57
2018-10-19T22:16:05.137Z,8.70
2018-10-19T22:18:38.954Z,6.07
2018-10-19T22:21:12.785Z,8.80
2018-10-19T22:23:52.947Z,9.20
2018-10-19T22:26:26.810Z,7.43
2018-10-19T22:29:00.804Z,4.10
2018-10-19T22:31:34.706Z,5.30
2018-10-19T22:34:08.491Z,9.07
2018-10-19T22:36:42.443Z,4.60
2018-10-19T22:39:16.368Z,5.50
2018-10-19T22:41:50.460Z,4.27
2018-10-19T22:44:24.346Z,3.40
2018-10-19T22:46:58.513Z,5.03
2018-10-19T22:49:32.585Z,4.47
2018-10-19T22:52:06.737Z,3.63
2018-10-19T22:54:40.704Z,3.87
2018-10-19T22:57:14.768Z,6.50
2018-10-19T22:59:48.781Z,8.77
2018-10-19T23:02:22.722Z,5.63
2018-10-19T23:04:56.660Z,5.07
2018-10-19T23:07:30.645Z,4.20
2018-10-19T23:10:04.860Z,5.37
2018-10-19T23:12:38.905Z,7.33
2018-10-19T23:15:12.753Z,7.67
2018-10-19T23:17:46.698Z,5.27
2018-10-19T23:20:20.539Z,5.90
2018-10-19T23:22:54.992Z,7.23
2018-10-19T23:25:28.816Z,5.87
2018-10-19T23:28:02.853Z,8.50
2018-10-19T23:30:36.665Z,5.87
2018-10-19T23:33:10.538Z,4.77
2018-10-19T23:35:44.360Z,8.00
2018-10-19T23:38:18.352Z,9.83
2018-10-19T23:40:52.489Z,7.60
2018-10-19T23:43:26.402Z,8.87
2018-10-19T23:46:00.389Z,3.63
2018-10-19T23:48:34.242Z,6.30
2018-10-19T23:51:08.129Z,4.67
2018-10-19T23:53:42.129Z,3.10
2018-10-19T23:56:15.961Z,4.73
2018-10-19T23:58:50.305Z,5.53
